Aérodrome :







RETROUVEZ-NOUS SUR...

 
LOGIN :

S'inscrire | Disclaimer

   EN    FR    IT 

 









Légende :    VFR   VFR Marginal   IFR   IFR Intensif   IFR Très Intensif
Visi : 
Plafond : 
>= 8 km
>= 3000ft
5 à 8 km
1000 à 3000 ft
1500m à 5 km
500 à 1000 ft
800 à 1500m
200 à 500 ft
< 800m
< 200 ft
Symboles :   Orages  Brouillard  Fortes neiges  Fortes précipitations  Vent > 20 kt






- Altitude de l'aérodrome : 1442 ft
- Code IATA : ZUM


CZUM - Churchill Falls

DERNIER METAR :
  • 241712Z AUTO 11008G16KT 070V130 1 1/2SM -SN BKN019 OVC032 M14/M18 A2988 RMK SLP172

METARs EXPIRÉS :
  • 241659Z AUTO 12011G17KT 2 1/4SM -SN BKN025 OVC035 M14/M19 A2989 RMK VIS VRB 1-3 SLP175
  • 241652Z AUTO 11010G17KT 5SM -SN FEW027 OVC032 M14/M19 A2989 RMK SLP176
  • 241621Z AUTO 11009G15KT 6SM -SN BKN027 OVC034 M14/M19 A2991 RMK SLP183
  • 241600Z AUTO 12008KT 9SM -SN OVC029 M15/M20 A2993 RMK SLP189
  • 241534Z AUTO 11010G15KT 7SM -SN FEW015 SCT020 OVC027 M15/M21 A2994 RMK SLP193
  • 241511Z AUTO 12009KT 9SM -SN BKN022 BKN034 OVC046 M16/M22 A2995 RMK SLP197
  • 241444Z AUTO 11009KT 9SM -SN FEW028 BKN042 BKN049 M17/M22 A2996 RMK SLP203

TAF TAF CZUM
Valide du 24 à 14h jusqu'au 25 à 02h UTC


241340Z 2414/2502 10010KT P6SM FEW020 BKN120
FM241500 10010KT 6SM -SN BKN030 OVC100
TEMPO 2415/2417 1SM -SN OVC015
FM241700 10010G20KT 1SM -SN OVC015
TEMPO 2417/2502 4SM -SN RMK FCST BASED ON AUTO OBS. NXT FCST BY 242000Z



MET'MAP, la Météo Aéronautique d'un coup d'oeil ! - Copyright ORBIFLY Décembre 2007 - Disclaimer

ORBIFLY MET'MAP TEAM :

Programmation & Développement : Alexandra Zaïnal
Sur une idée originale de : Baudouin d'Aumeries
Assistance à la programmation : Marc-Olivier Méhu
Soutien technique & logistique : Manuel Goepfert

Contact : metmap@orbifly.com




SOURCES & CREDITS :

   NOAA